Time;durP1;ratioP1;P1;durP2;ratioP2;P2;SDS_P1;SDS_P2;PMS_P1;PMS_P2;Temp;Humidity;BMP_temperature;BMP_pressure;BME280_temperature;BME280_humidity;BME280_pressure;Samples;Min_cycle;Max_cycle;Signal;HPM_P1;HPM_P2
2023/12/11 00:01:37;;;;;;;12.33;9.20;;;8.50;99.90;;;;;;5038432;28;20450;-87
2023/12/11 00:04:05;;;;;;;10.60;8.73;;;8.60;99.90;;;;;;5038244;28;20467;-87
2023/12/11 00:06:34;;;;;;;8.93;7.73;;;8.70;99.90;;;;;;5037540;28;20482;-85
2023/12/11 00:09:03;;;;;;;8.50;7.33;;;8.70;99.90;;;;;;5038778;28;20471;-86
2023/12/11 00:11:32;;;;;;;12.83;7.57;;;8.70;99.90;;;;;;5039751;28;20500;-86
2023/12/11 00:14:03;;;;;;;8.20;6.40;;;8.80;99.90;;;;;;5039748;28;20479;-86
2023/12/11 00:16:31;;;;;;;11.93;6.57;;;8.80;99.90;;;;;;5040433;28;20465;-86
2023/12/11 00:19:01;;;;;;;12.97;6.37;;;8.90;99.90;;;;;;5040004;28;20870;-87
2023/12/11 00:21:30;;;;;;;8.10;5.63;;;8.90;99.90;;;;;;5038403;28;20527;-86
2023/12/11 00:23:59;;;;;;;9.10;6.10;;;8.90;99.90;;;;;;5038056;28;20484;-85
2023/12/11 00:26:28;;;;;;;9.53;5.73;;;9.00;99.90;;;;;;5038491;28;20946;-84
2023/12/11 00:28:57;;;;;;;12.40;6.50;;;9.00;99.90;;;;;;5038778;28;21002;-86
2023/12/11 00:31:25;;;;;;;9.83;6.30;;;9.00;99.90;;;;;;5038079;28;20451;-86
2023/12/11 00:33:53;;;;;;;13.30;7.20;;;9.00;99.90;;;;;;5038109;28;20462;-85
2023/12/11 00:36:22;;;;;;;14.43;7.07;;;9.10;99.90;;;;;;5038397;28;20524;-84
2023/12/11 00:38:50;;;;;;;12.33;6.70;;;9.10;99.90;;;;;;5037862;28;20454;-86
2023/12/11 00:41:19;;;;;;;15.10;7.10;;;9.10;99.90;;;;;;5038731;28;20451;-86
2023/12/11 00:43:49;;;;;;;10.90;7.30;;;9.20;99.90;;;;;;5039439;28;20475;-85
2023/12/11 00:46:21;;;;;;;11.97;7.10;;;9.20;99.90;;;;;;5039161;28;20530;-85
2023/12/11 00:48:50;;;;;;;19.63;7.20;;;9.20;99.90;;;;;;5038008;28;20459;-86
2023/12/11 00:51:19;;;;;;;13.00;6.87;;;9.20;99.90;;;;;;5037510;28;20477;-86
2023/12/11 00:53:48;;;;;;;14.80;8.20;;;9.20;99.90;;;;;;5037615;28;20475;-86
2023/12/11 00:56:16;;;;;;;18.87;7.70;;;9.20;99.90;;;;;;5037571;28;20439;-86
2023/12/11 00:58:45;;;;;;;15.80;6.90;;;9.20;99.90;;;;;;5038756;28;20451;-85
2023/12/11 01:01:14;;;;;;;18.83;6.80;;;9.30;99.90;;;;;;5038528;28;20442;-85
2023/12/11 01:03:43;;;;;;;17.30;6.30;;;9.30;99.90;;;;;;5038339;28;20470;-85
2023/12/11 01:06:12;;;;;;;22.10;6.87;;;9.30;99.90;;;;;;5037970;28;20447;-85
2023/12/11 01:08:40;;;;;;;13.37;6.50;;;9.30;99.90;;;;;;5037891;28;20471;-85
2023/12/11 01:11:09;;;;;;;19.43;7.47;;;9.30;99.90;;;;;;5037433;28;20453;-85
2023/12/11 01:13:38;;;;;;;16.20;6.63;;;9.30;99.90;;;;;;5037428;28;20849;-85
2023/12/11 01:16:07;;;;;;;15.80;6.47;;;9.30;99.90;;;;;;5037604;28;20473;-85
2023/12/11 01:18:36;;;;;;;17.20;6.53;;;9.30;99.90;;;;;;5036291;28;20523;-85
2023/12/11 01:21:05;;;;;;;18.63;6.30;;;9.30;99.90;;;;;;5039086;28;20459;-84
2023/12/11 01:23:34;;;;;;;21.40;7.10;;;9.30;99.90;;;;;;5037227;28;20474;-85
2023/12/11 01:26:03;;;;;;;20.13;6.73;;;9.30;99.90;;;;;;5038761;28;20431;-85
2023/12/11 01:28:31;;;;;;;26.23;6.63;;;9.30;99.90;;;;;;5036868;28;20480;-84
2023/12/11 01:31:00;;;;;;;21.50;6.90;;;9.30;99.90;;;;;;5037451;28;20982;-84
2023/12/11 01:33:28;;;;;;;20.30;6.60;;;9.30;99.90;;;;;;5035969;28;20471;-84
2023/12/11 01:35:58;;;;;;;20.57;6.90;;;9.30;99.90;;;;;;5036789;28;20443;-85
2023/12/11 01:38:26;;;;;;;34.83;9.40;;;9.40;99.90;;;;;;5035803;28;20979;-84
2023/12/11 01:40:55;;;;;;;28.50;8.70;;;9.30;99.90;;;;;;5036261;28;20944;-84
2023/12/11 01:43:24;;;;;;;16.87;7.30;;;9.30;99.90;;;;;;5036214;28;21030;-84
2023/12/11 01:46:01;;;;;;;28.90;7.33;;;9.40;99.90;;;;;;5036318;28;20443;-83
2023/12/11 01:48:31;;;;;;;30.20;7.23;;;9.40;99.90;;;;;;5036746;28;20455;-84
2023/12/11 01:51:02;;;;;;;20.37;7.10;;;9.30;99.90;;;;;;5036523;28;20447;-84
2023/12/11 01:53:32;;;;;;;24.40;7.60;;;9.30;99.90;;;;;;5035130;28;20467;-85
2023/12/11 01:56:01;;;;;;;27.60;8.23;;;9.40;99.90;;;;;;5034641;28;20870;-84
2023/12/11 01:58:31;;;;;;;29.67;8.43;;;9.40;99.90;;;;;;5035955;28;20451;-84
2023/12/11 02:01:00;;;;;;;30.33;9.47;;;9.30;99.90;;;;;;5036199;28;20512;-84
2023/12/11 02:03:29;;;;;;;33.43;10.40;;;9.40;99.90;;;;;;5035448;28;20471;-84
2023/12/11 02:05:58;;;;;;;20.03;7.93;;;9.40;99.90;;;;;;5036288;28;20478;-84
2023/12/11 02:08:27;;;;;;;28.37;9.40;;;9.40;99.90;;;;;;5036197;28;20451;-84
2023/12/11 02:10:56;;;;;;;30.70;8.20;;;9.40;99.90;;;;;;5035484;28;20454;-84
2023/12/11 02:13:24;;;;;;;28.73;8.53;;;9.40;99.90;;;;;;5036522;28;20463;-84
2023/12/11 02:15:53;;;;;;;25.20;8.90;;;9.40;99.90;;;;;;5037595;28;20457;-84
2023/12/11 02:18:21;;;;;;;32.03;9.97;;;9.40;99.90;;;;;;5035188;28;20863;-83
2023/12/11 02:20:50;;;;;;;29.67;7.80;;;9.40;99.90;;;;;;5035328;28;20447;-83
2023/12/11 02:23:28;;;;;;;26.47;8.10;;;9.40;99.90;;;;;;5035090;28;20479;-84
2023/12/11 02:26:09;;;;;;;28.20;8.73;;;9.40;99.90;;;;;;5036520;28;20426;-83
2023/12/11 02:28:38;;;;;;;25.93;7.43;;;9.40;99.90;;;;;;5034722;28;20454;-84
2023/12/11 02:31:07;;;;;;;25.77;7.70;;;9.40;99.90;;;;;;5034075;28;20454;-84
2023/12/11 02:33:35;;;;;;;26.27;7.73;;;9.40;99.90;;;;;;5034322;28;20471;-83
2023/12/11 02:36:05;;;;;;;27.83;8.60;;;9.40;99.90;;;;;;5036011;28;20794;-82
2023/12/11 02:38:33;;;;;;;25.27;7.73;;;9.40;99.90;;;;;;5041982;28;20516;-84
2023/12/11 02:41:02;;;;;;;30.93;8.93;;;9.40;99.90;;;;;;5041903;28;20545;-85
2023/12/11 02:43:32;;;;;;;25.77;7.40;;;9.40;99.90;;;;;;5041792;28;20536;-85
2023/12/11 02:46:02;;;;;;;28.40;9.43;;;9.50;99.90;;;;;;5042389;28;20485;-85
2023/12/11 02:48:31;;;;;;;28.37;7.17;;;9.40;99.90;;;;;;5041940;28;20438;-85
2023/12/11 02:51:00;;;;;;;25.30;8.10;;;9.50;99.90;;;;;;5041394;28;20466;-85
2023/12/11 02:53:29;;;;;;;30.17;9.47;;;9.40;99.90;;;;;;5042022;28;20530;-84
2023/12/11 02:55:57;;;;;;;24.40;9.03;;;9.40;99.90;;;;;;5041331;28;20455;-84
2023/12/11 02:58:25;;;;;;;21.33;8.67;;;9.50;99.90;;;;;;5041902;28;20485;-85
2023/12/11 03:00:55;;;;;;;28.57;9.00;;;9.50;99.90;;;;;;5041114;28;20454;-84
2023/12/11 03:03:23;;;;;;;24.53;9.73;;;9.50;99.90;;;;;;5038843;28;20506;-84
2023/12/11 03:05:52;;;;;;;28.27;8.80;;;9.50;99.90;;;;;;5039696;28;20462;-84
2023/12/11 03:08:20;;;;;;;26.10;9.43;;;9.50;99.90;;;;;;5040682;28;20488;-84
2023/12/11 03:10:49;;;;;;;23.17;10.00;;;9.50;99.90;;;;;;5038920;28;20525;-82
2023/12/11 03:13:17;;;;;;;24.33;8.67;;;9.50;99.90;;;;;;5038535;28;20546;-83
2023/12/11 03:15:46;;;;;;;28.53;10.53;;;9.50;99.90;;;;;;5039005;28;20447;-83
2023/12/11 03:18:15;;;;;;;26.13;8.30;;;9.50;99.90;;;;;;5038123;28;20443;-84
2023/12/11 03:20:44;;;;;;;25.13;9.70;;;9.50;99.90;;;;;;5038493;28;20447;-84
2023/12/11 03:23:12;;;;;;;25.57;8.60;;;9.50;99.90;;;;;;5036616;28;21002;-83
2023/12/11 03:25:41;;;;;;;20.77;7.87;;;9.50;99.90;;;;;;5036570;28;20484;-82
2023/12/11 03:28:09;;;;;;;21.70;7.30;;;9.50;99.90;;;;;;5036935;28;20481;-84
2023/12/11 03:30:37;;;;;;;30.27;9.77;;;9.50;99.90;;;;;;5036835;28;20494;-84
2023/12/11 03:33:06;;;;;;;28.33;9.57;;;9.50;99.90;;;;;;5036690;28;20561;-84
2023/12/11 03:35:36;;;;;;;22.47;8.23;;;9.50;99.90;;;;;;5036663;28;20459;-84
2023/12/11 03:38:04;;;;;;;22.50;8.20;;;9.50;99.90;;;;;;5036600;28;20454;-84
2023/12/11 03:40:32;;;;;;;24.40;8.70;;;9.50;99.90;;;;;;5036563;28;20455;-83
2023/12/11 03:43:01;;;;;;;27.23;9.20;;;9.50;99.90;;;;;;5036439;28;20477;-84
2023/12/11 03:45:30;;;;;;;22.60;8.00;;;9.50;99.90;;;;;;5036696;28;20509;-84
2023/12/11 03:47:58;;;;;;;30.63;10.57;;;9.50;99.90;;;;;;5036421;28;20447;-84
2023/12/11 03:50:27;;;;;;;27.77;8.33;;;9.50;99.90;;;;;;5035821;28;20466;-83
2023/12/11 03:52:57;;;;;;;24.00;9.73;;;9.50;99.90;;;;;;5036579;28;20450;-83
2023/12/11 03:55:25;;;;;;;26.03;8.23;;;9.50;99.90;;;;;;5037238;28;20525;-82
2023/12/11 03:57:53;;;;;;;23.10;8.33;;;9.50;99.90;;;;;;5036206;28;20447;-83
2023/12/11 04:00:22;;;;;;;24.73;8.27;;;9.50;99.90;;;;;;5037262;28;20457;-83
2023/12/11 04:02:51;;;;;;;30.63;8.93;;;9.50;99.90;;;;;;5037257;28;20497;-83
2023/12/11 04:05:19;;;;;;;27.10;9.00;;;9.60;99.90;;;;;;5037423;28;20455;-82
2023/12/11 04:07:47;;;;;;;23.43;9.53;;;9.60;99.90;;;;;;5037650;28;20458;-83
2023/12/11 04:10:17;;;;;;;23.37;8.10;;;9.50;99.90;;;;;;5037509;28;20471;-83
2023/12/11 04:12:45;;;;;;;26.30;7.40;;;9.50;99.90;;;;;;5037029;28;20497;-81
2023/12/11 04:15:14;;;;;;;20.10;8.77;;;9.50;99.90;;;;;;5038376;28;20447;-82
2023/12/11 04:17:43;;;;;;;26.40;8.40;;;9.50;99.90;;;;;;5037462;28;20817;-82
2023/12/11 04:20:12;;;;;;;29.70;9.10;;;9.50;99.90;;;;;;5036629;28;20471;-82
2023/12/11 04:22:40;;;;;;;27.00;8.97;;;9.50;99.90;;;;;;5037414;28;20443;-82
2023/12/11 04:25:09;;;;;;;25.70;9.47;;;9.50;99.90;;;;;;5036758;28;20467;-82
2023/12/11 04:27:38;;;;;;;24.73;7.70;;;9.50;99.90;;;;;;5036555;28;20455;-83
2023/12/11 04:30:08;;;;;;;27.13;8.17;;;9.50;99.90;;;;;;5037373;28;20471;-82
2023/12/11 04:32:36;;;;;;;28.93;8.43;;;9.50;99.90;;;;;;5036351;28;20896;-82
2023/12/11 04:35:05;;;;;;;23.03;7.97;;;9.50;99.90;;;;;;5035954;28;20486;-82
2023/12/11 04:37:34;;;;;;;25.67;8.60;;;9.50;99.90;;;;;;5036288;28;20447;-82
2023/12/11 04:40:03;;;;;;;24.23;7.87;;;9.50;99.90;;;;;;5037424;28;20501;-82
2023/12/11 04:42:31;;;;;;;20.50;7.37;;;9.40;99.90;;;;;;5037285;28;20502;-82
2023/12/11 04:45:01;;;;;;;20.23;8.23;;;9.50;99.90;;;;;;5035623;28;20470;-82
2023/12/11 04:47:29;;;;;;;22.10;7.97;;;9.40;99.90;;;;;;5035702;28;20457;-82
2023/12/11 04:49:58;;;;;;;23.73;7.90;;;9.50;99.90;;;;;;5035410;28;20534;-82
2023/12/11 04:52:26;;;;;;;24.73;8.50;;;9.40;99.90;;;;;;5035407;28;20455;-82
2023/12/11 04:54:55;;;;;;;30.40;9.00;;;9.40;99.90;;;;;;5035175;28;20467;-82
2023/12/11 04:57:24;;;;;;;25.90;8.50;;;9.50;99.90;;;;;;5035545;28;20487;-82
2023/12/11 04:59:52;;;;;;;24.07;9.77;;;9.40;99.90;;;;;;5034863;28;20562;-82
2023/12/11 05:02:22;;;;;;;28.33;9.13;;;9.40;99.90;;;;;;5035401;28;20454;-80
2023/12/11 05:04:50;;;;;;;22.37;9.07;;;9.40;99.90;;;;;;5035329;28;20467;-82
2023/12/11 05:07:18;;;;;;;24.03;8.60;;;9.40;99.90;;;;;;5035173;28;20455;-81
2023/12/11 05:09:47;;;;;;;24.17;8.10;;;9.40;99.90;;;;;;5035304;28;20451;-82
2023/12/11 05:12:16;;;;;;;25.70;7.70;;;9.40;99.90;;;;;;5035117;28;20470;-82
2023/12/11 05:14:44;;;;;;;26.67;8.40;;;9.40;99.90;;;;;;5034712;28;20495;-82
2023/12/11 05:17:13;;;;;;;26.70;7.83;;;9.40;99.90;;;;;;5035067;28;20455;-81
2023/12/11 05:19:42;;;;;;;27.73;10.10;;;9.40;99.90;;;;;;5035833;28;20443;-83
2023/12/11 05:22:11;;;;;;;27.00;9.37;;;9.40;99.90;;;;;;5035245;28;20535;-83
2023/12/11 05:24:39;;;;;;;26.43;8.67;;;9.40;99.90;;;;;;5034854;28;20474;-82
2023/12/11 05:27:08;;;;;;;27.00;9.17;;;9.40;99.90;;;;;;5034866;28;20455;-82
2023/12/11 05:29:38;;;;;;;23.90;9.30;;;9.40;99.90;;;;;;5034459;28;20442;-82
2023/12/11 05:32:07;;;;;;;28.20;9.40;;;9.40;99.90;;;;;;5034114;28;20529;-82
2023/12/11 05:34:35;;;;;;;26.40;9.10;;;9.40;99.90;;;;;;5034289;28;20528;-82
2023/12/11 05:37:05;;;;;;;28.00;9.63;;;9.40;99.90;;;;;;5033867;28;20455;-83
2023/12/11 05:39:33;;;;;;;22.07;8.93;;;9.40;99.90;;;;;;5034086;28;20451;-83
2023/12/11 05:42:03;;;;;;;26.37;9.13;;;9.40;99.90;;;;;;5035399;28;20936;-82
2023/12/11 05:44:31;;;;;;;21.83;7.67;;;9.40;99.90;;;;;;5034932;28;20466;-83
2023/12/11 05:47:00;;;;;;;17.17;7.27;;;9.40;99.90;;;;;;5036928;28;20457;-83
2023/12/11 05:49:28;;;;;;;19.23;6.90;;;9.40;99.90;;;;;;5036284;28;20454;-83
2023/12/11 05:51:57;;;;;;;13.60;7.00;;;9.30;99.90;;;;;;5035877;28;20490;-84
2023/12/11 05:54:26;;;;;;;18.70;6.50;;;9.40;99.90;;;;;;5035483;28;20475;-85
2023/12/11 05:56:55;;;;;;;15.93;6.93;;;9.30;99.90;;;;;;5034391;28;20446;-85
2023/12/11 05:59:23;;;;;;;19.07;7.43;;;9.40;99.90;;;;;;5034818;28;20473;-85
2023/12/11 06:01:52;;;;;;;18.27;7.70;;;9.30;99.90;;;;;;5034552;28;20458;-84
2023/12/11 06:04:20;;;;;;;15.23;8.13;;;9.30;99.90;;;;;;5034407;28;20471;-84
2023/12/11 06:06:49;;;;;;;16.37;8.50;;;9.30;99.90;;;;;;5034498;28;20451;-84
2023/12/11 06:09:17;;;;;;;18.20;8.80;;;9.30;99.90;;;;;;5034774;28;20448;-84
2023/12/11 06:11:47;;;;;;;21.40;9.03;;;9.30;99.90;;;;;;5033751;28;20467;-85
2023/12/11 06:14:15;;;;;;;22.73;10.53;;;9.30;99.90;;;;;;5034661;28;20980;-84
2023/12/11 06:16:43;;;;;;;20.40;9.13;;;9.30;99.90;;;;;;5034366;28;20459;-84
2023/12/11 06:19:12;;;;;;;24.80;10.47;;;9.30;99.90;;;;;;5034274;28;20487;-83
2023/12/11 06:21:40;;;;;;;17.80;9.00;;;9.30;99.90;;;;;;5034138;28;20461;-83
2023/12/11 06:24:09;;;;;;;25.43;9.10;;;9.30;99.90;;;;;;5034493;28;20554;-83
2023/12/11 06:26:42;;;;;;;27.17;10.43;;;9.30;99.90;;;;;;5034571;28;20458;-84
2023/12/11 06:29:12;;;;;;;26.10;9.87;;;9.30;99.90;;;;;;5035438;28;20947;-84
2023/12/11 06:31:40;;;;;;;28.37;9.93;;;9.30;99.90;;;;;;5035465;28;20475;-84
2023/12/11 06:34:08;;;;;;;24.37;9.63;;;9.30;99.90;;;;;;5036886;28;20945;-84
2023/12/11 06:36:37;;;;;;;25.40;9.50;;;9.30;99.90;;;;;;5035882;28;20514;-83
2023/12/11 06:39:05;;;;;;;26.27;10.37;;;9.30;99.90;;;;;;5035261;28;20450;-84
2023/12/11 06:41:36;;;;;;;21.17;8.63;;;9.30;99.90;;;;;;5035325;28;20447;-83
2023/12/11 06:44:04;;;;;;;20.37;8.47;;;9.30;99.90;;;;;;5035492;28;20529;-83
2023/12/11 06:46:34;;;;;;;16.63;8.70;;;9.30;99.90;;;;;;5035179;28;20455;-83
2023/12/11 06:49:02;;;;;;;23.60;9.50;;;9.30;99.90;;;;;;5035122;28;20530;-83
2023/12/11 06:51:32;;;;;;;21.77;8.97;;;9.30;99.90;;;;;;5034818;28;20533;-84
2023/12/11 06:54:00;;;;;;;20.60;8.53;;;9.30;99.90;;;;;;5034648;28;20490;-83
2023/12/11 06:56:30;;;;;;;21.30;8.07;;;9.30;99.90;;;;;;5036883;28;20447;-83
2023/12/11 06:59:00;;;;;;;18.50;8.07;;;9.30;99.90;;;;;;5034896;28;20982;-83
2023/12/11 07:01:30;;;;;;;19.90;9.03;;;9.30;99.90;;;;;;5034966;28;20455;-84
2023/12/11 07:04:00;;;;;;;23.33;9.13;;;9.30;99.90;;;;;;5035576;28;20956;-84
2023/12/11 07:06:29;;;;;;;20.43;8.70;;;9.30;99.90;;;;;;5034611;28;20443;-83
2023/12/11 07:08:57;;;;;;;21.80;8.40;;;9.30;99.90;;;;;;5034746;28;20485;-84
2023/12/11 07:11:26;;;;;;;19.50;8.10;;;9.30;99.90;;;;;;5035874;28;20438;-83
2023/12/11 07:13:55;;;;;;;22.87;8.70;;;9.30;99.90;;;;;;5033817;28;21094;-83
2023/12/11 07:16:24;;;;;;;18.73;7.57;;;9.30;99.90;;;;;;5034426;28;20504;-83
2023/12/11 07:18:53;;;;;;;18.70;7.53;;;9.30;99.90;;;;;;5036871;28;20478;-82
2023/12/11 07:21:23;;;;;;;18.70;8.37;;;9.30;99.90;;;;;;5033976;28;20455;-83
2023/12/11 07:23:51;;;;;;;19.93;7.70;;;9.40;99.90;;;;;;5035905;28;20471;-83
2023/12/11 07:26:20;;;;;;;18.90;7.73;;;9.40;99.90;;;;;;5037776;28;21046;-83
2023/12/11 07:28:48;;;;;;;26.63;9.83;;;9.40;99.90;;;;;;5037793;28;20481;-83
2023/12/11 07:31:17;;;;;;;20.67;7.50;;;9.40;99.90;;;;;;5037705;28;20453;-84
2023/12/11 07:33:45;;;;;;;17.80;7.70;;;9.40;99.90;;;;;;5037619;28;20578;-84
2023/12/11 07:36:15;;;;;;;19.77;8.20;;;9.40;99.90;;;;;;5037939;28;20500;-83
2023/12/11 07:38:44;;;;;;;19.80;7.43;;;9.40;99.90;;;;;;5037689;28;20493;-84
2023/12/11 07:41:19;;;;;;;17.30;7.17;;;9.40;99.90;;;;;;5039320;28;20485;-84
2023/12/11 07:43:47;;;;;;;22.80;7.33;;;9.40;99.90;;;;;;5036906;28;20472;-84
2023/12/11 07:46:19;;;;;;;17.87;7.70;;;9.40;99.90;;;;;;5037199;28;20454;-84
2023/12/11 07:48:47;;;;;;;21.53;6.97;;;9.40;99.90;;;;;;5037354;28;20455;-84
2023/12/11 07:51:20;;;;;;;18.27;6.67;;;9.40;99.90;;;;;;5038776;28;20947;-84
2023/12/11 07:53:50;;;;;;;21.00;6.53;;;9.40;99.90;;;;;;5038023;28;20487;-83
2023/12/11 07:56:19;;;;;;;19.03;6.43;;;9.40;99.90;;;;;;5039570;28;20435;-84
2023/12/11 07:58:48;;;;;;;16.00;6.40;;;9.40;99.90;;;;;;5037527;28;20505;-84
2023/12/11 08:01:16;;;;;;;13.27;5.70;;;9.40;99.90;;;;;;5037440;28;20864;-84
2023/12/11 08:03:45;;;;;;;18.50;6.47;;;9.40;99.90;;;;;;5037575;28;20497;-83
2023/12/11 08:06:14;;;;;;;12.10;5.20;;;9.40;99.90;;;;;;5038660;28;20948;-84
2023/12/11 08:08:43;;;;;;;20.50;6.20;;;9.40;99.90;;;;;;5037113;28;20450;-84
2023/12/11 08:11:18;;;;;;;15.13;5.73;;;9.40;99.90;;;;;;5036942;28;20818;-84
2023/12/11 08:13:46;;;;;;;13.50;5.90;;;9.40;99.90;;;;;;5036837;28;20482;-84
2023/12/11 08:16:15;;;;;;;14.00;5.47;;;9.50;99.90;;;;;;5038637;28;20441;-84
2023/12/11 08:18:44;;;;;;;14.63;4.50;;;9.40;99.90;;;;;;5036848;28;20822;-84
2023/12/11 08:21:13;;;;;;;10.20;4.63;;;9.40;99.90;;;;;;5037909;28;21006;-84
2023/12/11 08:23:43;;;;;;;14.20;4.67;;;9.40;99.90;;;;;;5036357;28;20466;-84
2023/12/11 08:26:12;;;;;;;9.60;5.03;;;9.40;99.90;;;;;;5036365;28;20443;-84
2023/12/11 08:28:42;;;;;;;12.23;4.30;;;9.40;99.90;;;;;;5036928;28;20944;-83
2023/12/11 08:31:11;;;;;;;7.87;3.67;;;9.40;99.90;;;;;;5036316;28;20450;-83
2023/12/11 08:33:39;;;;;;;9.07;4.37;;;9.40;99.90;;;;;;5036090;28;20489;-84
2023/12/11 08:36:09;;;;;;;10.30;3.50;;;9.40;99.90;;;;;;5035108;28;20459;-83
2023/12/11 08:38:37;;;;;;;7.10;3.50;;;9.40;99.90;;;;;;5036245;28;20856;-84
2023/12/11 08:41:06;;;;;;;8.47;2.83;;;9.40;99.90;;;;;;5036275;28;20455;-83
2023/12/11 08:43:34;;;;;;;9.47;3.73;;;9.30;99.90;;;;;;5036049;28;20501;-84
2023/12/11 08:46:04;;;;;;;7.77;3.50;;;9.30;99.90;;;;;;5037328;28;20453;-83
2023/12/11 08:48:32;;;;;;;9.17;3.47;;;9.40;99.90;;;;;;5037458;28;20441;-84
2023/12/11 08:51:01;;;;;;;7.07;4.10;;;9.30;99.90;;;;;;5035615;28;20795;-84
2023/12/11 08:53:31;;;;;;;8.03;4.07;;;9.30;99.90;;;;;;5035460;28;20486;-83
2023/12/11 08:55:59;;;;;;;8.57;4.00;;;9.40;99.90;;;;;;5039788;28;20478;-84
2023/12/11 08:58:28;;;;;;;10.00;4.50;;;9.40;99.90;;;;;;5040473;28;20517;-84
2023/12/11 09:00:56;;;;;;;6.20;3.30;;;9.40;99.90;;;;;;5039955;28;20455;-84
2023/12/11 09:03:26;;;;;;;11.80;4.67;;;9.40;99.90;;;;;;5040156;28;20513;-84
2023/12/11 09:05:54;;;;;;;10.67;4.23;;;9.40;99.90;;;;;;5039781;28;20445;-84
2023/12/11 09:08:25;;;;;;;4.97;3.37;;;9.40;99.90;;;;;;5039865;28;20537;-84
2023/12/11 09:10:54;;;;;;;8.10;3.40;;;9.40;99.90;;;;;;5039560;28;20501;-83
2023/12/11 09:13:23;;;;;;;11.00;3.97;;;9.40;99.90;;;;;;5039197;28;20482;-84
2023/12/11 09:15:56;;;;;;;14.63;4.10;;;9.40;99.90;;;;;;5038996;28;20458;-83
2023/12/11 09:18:26;;;;;;;11.90;4.60;;;9.40;99.90;;;;;;5039282;28;20451;-84
2023/12/11 09:20:55;;;;;;;13.73;5.83;;;9.40;99.90;;;;;;5038742;28;20449;-83
2023/12/11 09:23:23;;;;;;;16.00;5.47;;;9.40;99.90;;;;;;5038628;28;20467;-84
2023/12/11 09:25:52;;;;;;;18.73;6.50;;;9.50;99.90;;;;;;5038590;28;20506;-84
2023/12/11 09:28:20;;;;;;;13.17;5.30;;;9.50;99.90;;;;;;5038530;28;20509;-84
2023/12/11 09:30:48;;;;;;;15.00;6.07;;;9.50;99.90;;;;;;5038303;28;20450;-84
2023/12/11 09:33:17;;;;;;;15.37;6.17;;;9.50;99.90;;;;;;5037729;28;20478;-84
2023/12/11 09:35:47;;;;;;;18.07;5.40;;;9.50;99.90;;;;;;5038097;28;20482;-84
2023/12/11 09:38:15;;;;;;;16.13;5.70;;;9.50;99.90;;;;;;5037494;28;20451;-84
2023/12/11 09:40:43;;;;;;;17.43;6.30;;;9.60;99.90;;;;;;5038174;28;20446;-84
2023/12/11 09:43:12;;;;;;;15.23;5.37;;;9.60;99.90;;;;;;5037138;28;20478;-84
2023/12/11 09:45:41;;;;;;;13.60;5.53;;;9.60;99.90;;;;;;5037091;28;20470;-84
2023/12/11 09:48:10;;;;;;;14.50;5.80;;;9.60;99.90;;;;;;5037179;28;20457;-84
2023/12/11 09:50:42;;;;;;;13.13;5.27;;;9.60;99.90;;;;;;5037042;28;20466;-84
2023/12/11 09:53:11;;;;;;;11.83;5.80;;;9.60;99.90;;;;;;5037852;28;20839;-84
2023/12/11 09:55:39;;;;;;;16.90;6.23;;;9.60;99.90;;;;;;5037137;28;20450;-83
2023/12/11 09:58:09;;;;;;;17.17;6.40;;;9.70;99.90;;;;;;5037061;28;20865;-83
2023/12/11 10:00:37;;;;;;;16.00;5.43;;;9.70;99.90;;;;;;5036295;28;20443;-83
2023/12/11 10:03:07;;;;;;;13.37;5.00;;;9.70;99.90;;;;;;5036325;28;20470;-84
2023/12/11 10:05:37;;;;;;;14.33;5.33;;;9.70;99.90;;;;;;5038130;28;20424;-83
2023/12/11 10:08:06;;;;;;;17.57;5.20;;;9.80;99.90;;;;;;5036209;28;20885;-84
2023/12/11 10:10:38;;;;;;;11.10;5.40;;;9.80;99.90;;;;;;5038054;28;20446;-84
2023/12/11 10:13:06;;;;;;;9.27;5.60;;;9.80;99.90;;;;;;5035790;28;20999;-84
2023/12/11 10:15:36;;;;;;;10.60;5.60;;;9.70;99.90;;;;;;5036577;28;20981;-84
2023/12/11 10:18:07;;;;;;;10.93;5.03;;;9.80;99.90;;;;;;5036348;28;20505;-84
2023/12/11 10:20:37;;;;;;;12.10;5.13;;;9.80;99.90;;;;;;5035267;28;20960;-84
2023/12/11 10:23:14;;;;;;;8.27;4.97;;;9.80;99.90;;;;;;5037655;28;20458;-84
2023/12/11 10:25:46;;;;;;;10.63;5.17;;;9.80;99.90;;;;;;5035214;28;20485;-84
2023/12/11 10:28:16;;;;;;;9.50;5.13;;;9.70;99.90;;;;;;5035591;28;20446;-84
2023/12/11 10:30:53;;;;;;;14.03;5.90;;;9.80;99.90;;;;;;5036022;28;20843;-85
2023/12/11 10:33:23;;;;;;;10.50;5.57;;;9.80;99.90;;;;;;5037656;28;20458;-84
2023/12/11 10:35:51;;;;;;;14.80;6.00;;;9.70;99.90;;;;;;5035128;28;20546;-85
2023/12/11 10:38:25;;;;;;;9.63;5.07;;;9.80;99.90;;;;;;5035420;28;20490;-84
2023/12/11 10:40:56;;;;;;;12.00;5.10;;;9.80;99.90;;;;;;5036237;28;20443;-84
2023/12/11 10:43:24;;;;;;;9.90;5.40;;;9.80;99.90;;;;;;5035519;28;20482;-84
2023/12/11 10:45:53;;;;;;;12.80;6.50;;;9.80;99.90;;;;;;5034898;28;20485;-84
2023/12/11 10:48:21;;;;;;;11.37;6.13;;;9.80;99.90;;;;;;5034963;28;20453;-84
2023/12/11 10:50:51;;;;;;;11.23;6.30;;;9.80;99.90;;;;;;5034594;28;20485;-83
2023/12/11 10:53:19;;;;;;;10.50;6.90;;;9.80;99.90;;;;;;5034124;28;20528;-83
2023/12/11 10:55:50;;;;;;;8.77;7.30;;;9.80;99.90;;;;;;5034395;28;20535;-83
2023/12/11 10:58:20;;;;;;;11.20;6.90;;;9.80;99.90;;;;;;5036974;28;20430;-84
2023/12/11 11:00:49;;;;;;;12.17;6.07;;;9.80;99.90;;;;;;5038361;28;20471;-84
2023/12/11 11:03:18;;;;;;;12.87;6.97;;;9.80;99.90;;;;;;5038277;28;20542;-83
2023/12/11 11:05:52;;;;;;;10.57;6.13;;;9.80;99.90;;;;;;5037910;28;20439;-84
2023/12/11 11:08:29;;;;;;;8.80;5.20;;;9.80;99.90;;;;;;5041550;28;20447;-84
2023/12/11 11:11:03;;;;;;;9.17;6.17;;;9.80;99.90;;;;;;5039314;28;20569;-81
2023/12/11 11:13:44;;;;;;;10.07;7.27;;;9.80;99.90;;;;;;5039098;28;20528;-83
2023/12/11 11:16:12;;;;;;;9.70;6.37;;;9.80;99.90;;;;;;5039063;28;20473;-82
2023/12/11 11:19:05;;;;;;;12.67;7.57;;;9.80;99.90;;;;;;5038639;28;20482;-83
2023/12/11 11:21:34;;;;;;;13.63;7.30;;;9.90;99.90;;;;;;5039040;28;20454;-82
2023/12/11 11:24:02;;;;;;;10.43;7.67;;;9.80;99.90;;;;;;5038567;28;20455;-83
2023/12/11 11:26:33;;;;;;;10.00;7.70;;;9.90;99.90;;;;;;5038856;28;20485;-84
2023/12/11 11:29:03;;;;;;;10.53;8.40;;;9.90;99.90;;;;;;5039516;28;20450;-84
2023/12/11 11:31:52;;;;;;;10.73;8.20;;;9.90;99.90;;;;;;5039246;28;20804;-83
2023/12/11 11:34:43;;;;;;;15.17;9.17;;;9.90;99.90;;;;;;5038344;28;20489;-85
2023/12/11 11:37:17;;;;;;;11.13;8.23;;;9.90;99.90;;;;;;5038876;28;20875;-83
2023/12/11 11:39:56;;;;;;;8.07;7.20;;;9.90;99.90;;;;;;5039360;28;20449;-83
2023/12/11 11:42:25;;;;;;;10.00;5.57;;;9.90;99.90;;;;;;5039333;28;20466;-85
2023/12/11 11:44:57;;;;;;;6.83;5.67;;;9.90;99.90;;;;;;5038212;28;20462;-82
2023/12/11 11:47:26;;;;;;;6.47;5.43;;;9.90;99.90;;;;;;5039754;28;20443;-83
2023/12/11 11:49:54;;;;;;;9.87;5.30;;;9.90;99.90;;;;;;5040940;28;20439;-82
2023/12/11 11:52:27;;;;;;;5.73;5.10;;;9.90;99.90;;;;;;5044091;28;20521;-85
2023/12/11 11:55:04;;;;;;;8.03;5.20;;;9.90;99.90;;;;;;5039153;28;21067;-85
2023/12/11 11:57:33;;;;;;;5.37;4.87;;;9.90;99.90;;;;;;5039491;28;20419;-84
2023/12/11 12:00:05;;;;;;;5.43;4.60;;;9.90;99.90;;;;;;5037522;28;20439;-85
2023/12/11 12:02:34;;;;;;;5.63;4.97;;;9.90;99.90;;;;;;5037658;28;20435;-84
2023/12/11 12:05:07;;;;;;;7.57;5.13;;;10.00;99.90;;;;;;5037734;28;20474;-84
2023/12/11 12:07:39;;;;;;;6.50;5.17;;;10.00;99.90;;;;;;5040026;28;20430;-85
2023/12/11 12:10:11;;;;;;;8.53;4.63;;;10.00;99.90;;;;;;5038621;28;20451;-85
2023/12/11 12:12:40;;;;;;;5.77;4.53;;;10.00;99.90;;;;;;5038651;28;20446;-85
2023/12/11 12:15:11;;;;;;;7.33;4.67;;;10.00;99.90;;;;;;5038471;28;20844;-85
2023/12/11 12:17:39;;;;;;;7.27;4.97;;;10.00;99.90;;;;;;5038931;28;20439;-85
2023/12/11 12:20:12;;;;;;;5.50;4.50;;;10.00;99.90;;;;;;5039236;28;20477;-85
2023/12/11 12:22:55;;;;;;;8.90;5.47;;;10.00;99.90;;;;;;5038957;28;20447;-85
2023/12/11 12:25:24;;;;;;;7.67;5.27;;;10.00;99.90;;;;;;5038148;28;20444;-85
2023/12/11 12:27:53;;;;;;;9.40;4.83;;;10.00;99.90;;;;;;5038832;28;20443;-85
2023/12/11 12:30:24;;;;;;;7.53;5.30;;;9.90;99.90;;;;;;5038702;28;20802;-84
2023/12/11 12:32:53;;;;;;;5.73;4.60;;;10.00;99.90;;;;;;5037580;28;20458;-85
2023/12/11 12:35:22;;;;;;;7.73;4.80;;;10.00;99.90;;;;;;5037320;28;20489;-84
2023/12/11 12:37:51;;;;;;;7.00;4.63;;;10.00;99.90;;;;;;5037935;28;20449;-85
2023/12/11 12:40:20;;;;;;;8.63;5.80;;;10.00;99.90;;;;;;5038215;28;20508;-84
2023/12/11 12:42:48;;;;;;;6.87;4.47;;;10.00;99.90;;;;;;5039223;28;20446;-85
2023/12/11 12:45:28;;;;;;;5.77;4.20;;;10.00;99.90;;;;;;5037549;28;20435;-85
2023/12/11 12:48:04;;;;;;;7.13;4.80;;;10.00;99.90;;;;;;5037670;28;20470;-85
2023/12/11 12:50:34;;;;;;;8.00;4.27;;;9.90;99.90;;;;;;5037810;28;20952;-85
2023/12/11 12:53:07;;;;;;;6.00;4.27;;;10.00;99.90;;;;;;5037408;28;21015;-85
2023/12/11 12:55:36;;;;;;;5.03;4.10;;;10.00;99.90;;;;;;5037522;28;20569;-85
2023/12/11 12:58:08;;;;;;;10.23;4.57;;;10.00;99.90;;;;;;5037569;28;20496;-85
2023/12/11 13:00:40;;;;;;;7.37;4.10;;;10.00;99.90;;;;;;5037691;28;20546;-85